sensor_id;sensor_type;location;lat;lon;timestamp;P1;durP1;ratioP1;P2;durP2;ratioP2
62696;SDS011;48761;42.680;23.312;2023-02-28T00:02:20;35.92;;;20.40;;
62696;SDS011;48761;42.680;23.312;2023-02-28T00:04:46;34.58;;;19.90;;
62696;SDS011;48761;42.680;23.312;2023-02-28T00:07:12;31.25;;;19.65;;
62696;SDS011;48761;42.680;23.312;2023-02-28T00:09:38;29.80;;;19.15;;
62696;SDS011;48761;42.680;23.312;2023-02-28T00:12:04;29.80;;;19.52;;
62696;SDS011;48761;42.680;23.312;2023-02-28T00:14:30;32.97;;;19.13;;
62696;SDS011;48761;42.680;23.312;2023-02-28T00:16:56;30.02;;;18.75;;
62696;SDS011;48761;42.680;23.312;2023-02-28T00:19:22;29.95;;;17.08;;
62696;SDS011;48761;42.680;23.312;2023-02-28T00:21:47;28.38;;;18.08;;
62696;SDS011;48761;42.680;23.312;2023-02-28T00:24:14;25.70;;;16.85;;
62696;SDS011;48761;42.680;23.312;2023-02-28T00:26:40;29.25;;;16.33;;
62696;SDS011;48761;42.680;23.312;2023-02-28T00:29:05;27.42;;;16.50;;
62696;SDS011;48761;42.680;23.312;2023-02-28T00:31:31;26.85;;;16.15;;
62696;SDS011;48761;42.680;23.312;2023-02-28T00:33:57;25.77;;;16.10;;
62696;SDS011;48761;42.680;23.312;2023-02-28T00:36:23;25.63;;;15.40;;
62696;SDS011;48761;42.680;23.312;2023-02-28T00:38:49;26.25;;;16.48;;
62696;SDS011;48761;42.680;23.312;2023-02-28T00:41:15;29.08;;;17.10;;
62696;SDS011;48761;42.680;23.312;2023-02-28T00:43:41;30.70;;;17.65;;
62696;SDS011;48761;42.680;23.312;2023-02-28T00:46:07;31.63;;;18.05;;
62696;SDS011;48761;42.680;23.312;2023-02-28T00:48:34;30.40;;;17.45;;
62696;SDS011;48761;42.680;23.312;2023-02-28T00:51:01;28.52;;;17.65;;
62696;SDS011;48761;42.680;23.312;2023-02-28T00:53:27;26.35;;;16.38;;
62696;SDS011;48761;42.680;23.312;2023-02-28T00:55:54;26.67;;;17.20;;
62696;SDS011;48761;42.680;23.312;2023-02-28T00:58:20;26.90;;;16.27;;
62696;SDS011;48761;42.680;23.312;2023-02-28T01:00:45;27.05;;;16.70;;
62696;SDS011;48761;42.680;23.312;2023-02-28T01:03:11;27.10;;;16.83;;
62696;SDS011;48761;42.680;23.312;2023-02-28T01:05:37;24.75;;;16.23;;
62696;SDS011;48761;42.680;23.312;2023-02-28T01:08:03;28.25;;;18.48;;
62696;SDS011;48761;42.680;23.312;2023-02-28T01:10:29;35.72;;;22.08;;
62696;SDS011;48761;42.680;23.312;2023-02-28T01:12:55;37.63;;;21.75;;
62696;SDS011;48761;42.680;23.312;2023-02-28T01:15:21;45.42;;;26.40;;
62696;SDS011;48761;42.680;23.312;2023-02-28T01:17:47;38.50;;;23.33;;
62696;SDS011;48761;42.680;23.312;2023-02-28T01:20:13;43.63;;;26.00;;
62696;SDS011;48761;42.680;23.312;2023-02-28T01:22:39;44.50;;;27.70;;
62696;SDS011;48761;42.680;23.312;2023-02-28T01:25:05;43.78;;;26.30;;
62696;SDS011;48761;42.680;23.312;2023-02-28T01:27:31;44.15;;;25.25;;
62696;SDS011;48761;42.680;23.312;2023-02-28T01:29:57;40.13;;;25.98;;
62696;SDS011;48761;42.680;23.312;2023-02-28T01:32:23;41.45;;;24.85;;
62696;SDS011;48761;42.680;23.312;2023-02-28T01:34:49;44.05;;;25.60;;
62696;SDS011;48761;42.680;23.312;2023-02-28T01:37:15;42.53;;;25.80;;
62696;SDS011;48761;42.680;23.312;2023-02-28T01:39:41;46.05;;;27.08;;
62696;SDS011;48761;42.680;23.312;2023-02-28T01:42:08;39.72;;;22.90;;
62696;SDS011;48761;42.680;23.312;2023-02-28T01:47:29;37.60;;;22.73;;
62696;SDS011;48761;42.680;23.312;2023-02-28T01:50:02;35.20;;;21.80;;
62696;SDS011;48761;42.680;23.312;2023-02-28T01:52:32;35.67;;;21.75;;
62696;SDS011;48761;42.680;23.312;2023-02-28T01:54:59;33.45;;;20.98;;
62696;SDS011;48761;42.680;23.312;2023-02-28T01:57:29;33.75;;;21.38;;
62696;SDS011;48761;42.680;23.312;2023-02-28T02:00:09;34.53;;;22.00;;
62696;SDS011;48761;42.680;23.312;2023-02-28T02:02:37;35.75;;;22.38;;
62696;SDS011;48761;42.680;23.312;2023-02-28T02:05:05;38.72;;;23.40;;
62696;SDS011;48761;42.680;23.312;2023-02-28T02:07:33;37.83;;;23.83;;
62696;SDS011;48761;42.680;23.312;2023-02-28T02:16:35;45.75;;;25.08;;
62696;SDS011;48761;42.680;23.312;2023-02-28T02:32:54;45.60;;;26.45;;
62696;SDS011;48761;42.680;23.312;2023-02-28T02:35:24;49.08;;;26.38;;
62696;SDS011;48761;42.680;23.312;2023-02-28T02:43:45;44.50;;;26.65;;
62696;SDS011;48761;42.680;23.312;2023-02-28T02:46:19;52.40;;;27.13;;
62696;SDS011;48761;42.680;23.312;2023-02-28T02:48:47;49.75;;;28.50;;
62696;SDS011;48761;42.680;23.312;2023-02-28T02:51:14;49.40;;;27.63;;
62696;SDS011;48761;42.680;23.312;2023-02-28T02:53:58;55.60;;;29.23;;
62696;SDS011;48761;42.680;23.312;2023-02-28T02:56:31;53.53;;;28.30;;
62696;SDS011;48761;42.680;23.312;2023-02-28T02:59:01;55.58;;;28.92;;
62696;SDS011;48761;42.680;23.312;2023-02-28T03:01:30;62.30;;;29.70;;
62696;SDS011;48761;42.680;23.312;2023-02-28T03:03:59;64.50;;;31.65;;
62696;SDS011;48761;42.680;23.312;2023-02-28T03:06:28;59.78;;;30.77;;
62696;SDS011;48761;42.680;23.312;2023-02-28T03:08:54;60.65;;;30.27;;
62696;SDS011;48761;42.680;23.312;2023-02-28T03:11:20;59.22;;;29.48;;
62696;SDS011;48761;42.680;23.312;2023-02-28T03:16:32;60.05;;;30.35;;
62696;SDS011;48761;42.680;23.312;2023-02-28T03:21:34;65.18;;;30.55;;
62696;SDS011;48761;42.680;23.312;2023-02-28T03:26:45;60.00;;;29.67;;
62696;SDS011;48761;42.680;23.312;2023-02-28T03:31:54;55.08;;;28.20;;
62696;SDS011;48761;42.680;23.312;2023-02-28T03:34:29;47.22;;;24.70;;
62696;SDS011;48761;42.680;23.312;2023-02-28T03:37:04;48.88;;;25.52;;
62696;SDS011;48761;42.680;23.312;2023-02-28T03:39:42;48.15;;;25.98;;
62696;SDS011;48761;42.680;23.312;2023-02-28T03:42:20;47.90;;;25.02;;
62696;SDS011;48761;42.680;23.312;2023-02-28T03:47:37;62.08;;;29.83;;
62696;SDS011;48761;42.680;23.312;2023-02-28T03:50:12;63.35;;;31.73;;
62696;SDS011;48761;42.680;23.312;2023-02-28T03:53:04;56.65;;;29.00;;
62696;SDS011;48761;42.680;23.312;2023-02-28T03:56:03;59.00;;;30.70;;
62696;SDS011;48761;42.680;23.312;2023-02-28T03:58:38;51.95;;;28.55;;
62696;SDS011;48761;42.680;23.312;2023-02-28T04:01:15;53.05;;;28.60;;
62696;SDS011;48761;42.680;23.312;2023-02-28T04:03:49;54.22;;;28.75;;
62696;SDS011;48761;42.680;23.312;2023-02-28T04:06:17;52.00;;;28.98;;
62696;SDS011;48761;42.680;23.312;2023-02-28T04:08:45;64.20;;;31.25;;
62696;SDS011;48761;42.680;23.312;2023-02-28T04:11:17;58.70;;;29.30;;
62696;SDS011;48761;42.680;23.312;2023-02-28T04:13:49;58.20;;;30.33;;
62696;SDS011;48761;42.680;23.312;2023-02-28T04:16:15;66.18;;;33.47;;
62696;SDS011;48761;42.680;23.312;2023-02-28T04:18:41;59.33;;;32.00;;
62696;SDS011;48761;42.680;23.312;2023-02-28T04:21:08;71.13;;;32.70;;
62696;SDS011;48761;42.680;23.312;2023-02-28T04:23:34;65.93;;;31.95;;
62696;SDS011;48761;42.680;23.312;2023-02-28T04:26:00;68.72;;;34.53;;
62696;SDS011;48761;42.680;23.312;2023-02-28T04:28:26;67.78;;;33.42;;
62696;SDS011;48761;42.680;23.312;2023-02-28T04:30:56;66.05;;;33.13;;
62696;SDS011;48761;42.680;23.312;2023-02-28T04:33:27;65.93;;;32.40;;
62696;SDS011;48761;42.680;23.312;2023-02-28T04:35:59;60.65;;;31.17;;
62696;SDS011;48761;42.680;23.312;2023-02-28T04:38:26;70.07;;;33.15;;
62696;SDS011;48761;42.680;23.312;2023-02-28T04:40:52;58.78;;;29.63;;
62696;SDS011;48761;42.680;23.312;2023-02-28T04:43:18;72.88;;;31.35;;
62696;SDS011;48761;42.680;23.312;2023-02-28T04:45:44;60.75;;;30.20;;
62696;SDS011;48761;42.680;23.312;2023-02-28T04:48:10;64.93;;;28.88;;
62696;SDS011;48761;42.680;23.312;2023-02-28T04:50:36;58.83;;;29.40;;
62696;SDS011;48761;42.680;23.312;2023-02-28T04:53:02;60.63;;;29.85;;
62696;SDS011;48761;42.680;23.312;2023-02-28T04:55:28;76.03;;;27.20;;
62696;SDS011;48761;42.680;23.312;2023-02-28T04:57:54;66.82;;;29.08;;
62696;SDS011;48761;42.680;23.312;2023-02-28T05:00:20;69.32;;;28.90;;
62696;SDS011;48761;42.680;23.312;2023-02-28T05:02:46;55.45;;;29.52;;
62696;SDS011;48761;42.680;23.312;2023-02-28T05:05:12;67.70;;;29.80;;
62696;SDS011;48761;42.680;23.312;2023-02-28T05:07:38;63.80;;;30.73;;
62696;SDS011;48761;42.680;23.312;2023-02-28T05:10:04;58.30;;;29.90;;
62696;SDS011;48761;42.680;23.312;2023-02-28T05:12:30;65.25;;;30.73;;
62696;SDS011;48761;42.680;23.312;2023-02-28T05:14:56;63.83;;;30.08;;
62696;SDS011;48761;42.680;23.312;2023-02-28T05:17:22;61.95;;;30.60;;
62696;SDS011;48761;42.680;23.312;2023-02-28T05:19:48;58.42;;;30.45;;
62696;SDS011;48761;42.680;23.312;2023-02-28T05:22:14;65.43;;;31.10;;
62696;SDS011;48761;42.680;23.312;2023-02-28T05:24:41;66.97;;;30.27;;
62696;SDS011;48761;42.680;23.312;2023-02-28T05:27:07;65.47;;;30.65;;
62696;SDS011;48761;42.680;23.312;2023-02-28T05:29:33;62.80;;;30.33;;
62696;SDS011;48761;42.680;23.312;2023-02-28T05:31:59;59.42;;;30.80;;
62696;SDS011;48761;42.680;23.312;2023-02-28T05:34:25;58.05;;;31.27;;
62696;SDS011;48761;42.680;23.312;2023-02-28T05:36:51;62.33;;;31.00;;
62696;SDS011;48761;42.680;23.312;2023-02-28T05:39:17;58.40;;;30.63;;
62696;SDS011;48761;42.680;23.312;2023-02-28T05:41:43;58.78;;;30.13;;
62696;SDS011;48761;42.680;23.312;2023-02-28T05:44:09;57.95;;;30.27;;
62696;SDS011;48761;42.680;23.312;2023-02-28T05:46:36;54.05;;;29.40;;
62696;SDS011;48761;42.680;23.312;2023-02-28T05:49:02;57.15;;;29.58;;
62696;SDS011;48761;42.680;23.312;2023-02-28T05:51:28;61.67;;;29.92;;
62696;SDS011;48761;42.680;23.312;2023-02-28T05:53:54;52.38;;;29.67;;
62696;SDS011;48761;42.680;23.312;2023-02-28T05:56:24;62.75;;;31.33;;
62696;SDS011;48761;42.680;23.312;2023-02-28T05:58:50;60.72;;;31.00;;
62696;SDS011;48761;42.680;23.312;2023-02-28T06:01:21;56.92;;;30.92;;
62696;SDS011;48761;42.680;23.312;2023-02-28T06:04:08;60.83;;;29.83;;
62696;SDS011;48761;42.680;23.312;2023-02-28T06:06:35;62.10;;;31.75;;
62696;SDS011;48761;42.680;23.312;2023-02-28T06:09:02;58.15;;;30.58;;
62696;SDS011;48761;42.680;23.312;2023-02-28T06:11:32;61.05;;;32.47;;
62696;SDS011;48761;42.680;23.312;2023-02-28T06:13:58;56.90;;;30.92;;
62696;SDS011;48761;42.680;23.312;2023-02-28T06:16:25;61.65;;;31.98;;
62696;SDS011;48761;42.680;23.312;2023-02-28T06:18:52;60.67;;;30.85;;
62696;SDS011;48761;42.680;23.312;2023-02-28T06:21:18;60.55;;;31.02;;
62696;SDS011;48761;42.680;23.312;2023-02-28T06:23:44;58.88;;;32.03;;
62696;SDS011;48761;42.680;23.312;2023-02-28T06:26:10;64.38;;;33.20;;
62696;SDS011;48761;42.680;23.312;2023-02-28T06:28:36;61.95;;;31.92;;
62696;SDS011;48761;42.680;23.312;2023-02-28T06:31:07;62.35;;;31.17;;
62696;SDS011;48761;42.680;23.312;2023-02-28T06:33:37;66.57;;;33.28;;
62696;SDS011;48761;42.680;23.312;2023-02-28T06:36:04;63.15;;;32.30;;
62696;SDS011;48761;42.680;23.312;2023-02-28T06:38:31;66.88;;;33.28;;
62696;SDS011;48761;42.680;23.312;2023-02-28T06:40:58;62.10;;;33.72;;
62696;SDS011;48761;42.680;23.312;2023-02-28T06:43:27;67.97;;;33.80;;
62696;SDS011;48761;42.680;23.312;2023-02-28T06:45:57;67.50;;;35.22;;
62696;SDS011;48761;42.680;23.312;2023-02-28T06:48:25;64.28;;;34.38;;
62696;SDS011;48761;42.680;23.312;2023-02-28T06:51:00;69.90;;;35.30;;
62696;SDS011;48761;42.680;23.312;2023-02-28T06:53:30;63.30;;;34.22;;
62696;SDS011;48761;42.680;23.312;2023-02-28T06:55:56;65.38;;;34.67;;
62696;SDS011;48761;42.680;23.312;2023-02-28T06:58:22;64.40;;;34.10;;
62696;SDS011;48761;42.680;23.312;2023-02-28T07:00:50;58.38;;;32.20;;
62696;SDS011;48761;42.680;23.312;2023-02-28T07:03:17;60.03;;;32.50;;
62696;SDS011;48761;42.680;23.312;2023-02-28T07:05:44;54.88;;;30.73;;
62696;SDS011;48761;42.680;23.312;2023-02-28T07:08:10;55.80;;;32.58;;
62696;SDS011;48761;42.680;23.312;2023-02-28T07:10:37;59.35;;;33.78;;
62696;SDS011;48761;42.680;23.312;2023-02-28T07:13:04;68.00;;;36.13;;
62696;SDS011;48761;42.680;23.312;2023-02-28T07:15:31;69.78;;;33.70;;
62696;SDS011;48761;42.680;23.312;2023-02-28T07:17:57;63.60;;;33.95;;
62696;SDS011;48761;42.680;23.312;2023-02-28T07:20:23;64.22;;;34.40;;
62696;SDS011;48761;42.680;23.312;2023-02-28T07:22:50;65.65;;;33.45;;
62696;SDS011;48761;42.680;23.312;2023-02-28T07:25:16;63.88;;;33.53;;
62696;SDS011;48761;42.680;23.312;2023-02-28T07:27:42;68.20;;;34.97;;
62696;SDS011;48761;42.680;23.312;2023-02-28T07:30:08;67.47;;;33.78;;
62696;SDS011;48761;42.680;23.312;2023-02-28T07:32:34;61.22;;;33.40;;
62696;SDS011;48761;42.680;23.312;2023-02-28T07:35:00;60.13;;;33.25;;
62696;SDS011;48761;42.680;23.312;2023-02-28T07:37:26;60.50;;;31.65;;
62696;SDS011;48761;42.680;23.312;2023-02-28T07:39:52;64.05;;;31.08;;
62696;SDS011;48761;42.680;23.312;2023-02-28T07:42:18;61.15;;;31.67;;
62696;SDS011;48761;42.680;23.312;2023-02-28T07:44:44;55.72;;;31.05;;
62696;SDS011;48761;42.680;23.312;2023-02-28T07:47:10;55.95;;;29.77;;
62696;SDS011;48761;42.680;23.312;2023-02-28T07:49:36;57.00;;;31.60;;
62696;SDS011;48761;42.680;23.312;2023-02-28T07:52:03;55.85;;;30.58;;
62696;SDS011;48761;42.680;23.312;2023-02-28T07:54:30;53.55;;;30.60;;
62696;SDS011;48761;42.680;23.312;2023-02-28T07:56:56;61.47;;;32.35;;
62696;SDS011;48761;42.680;23.312;2023-02-28T07:59:22;59.25;;;29.98;;
62696;SDS011;48761;42.680;23.312;2023-02-28T08:01:49;61.00;;;31.83;;
62696;SDS011;48761;42.680;23.312;2023-02-28T08:04:15;55.70;;;29.63;;
62696;SDS011;48761;42.680;23.312;2023-02-28T08:06:42;56.60;;;32.22;;
62696;SDS011;48761;42.680;23.312;2023-02-28T08:09:08;57.97;;;34.00;;
62696;SDS011;48761;42.680;23.312;2023-02-28T08:11:34;56.35;;;34.63;;
62696;SDS011;48761;42.680;23.312;2023-02-28T08:14:00;92.55;;;54.80;;
62696;SDS011;48761;42.680;23.312;2023-02-28T08:16:26;59.13;;;31.83;;
62696;SDS011;48761;42.680;23.312;2023-02-28T08:18:52;49.92;;;30.05;;
62696;SDS011;48761;42.680;23.312;2023-02-28T08:21:19;54.38;;;31.40;;
62696;SDS011;48761;42.680;23.312;2023-02-28T08:23:46;53.40;;;29.33;;
62696;SDS011;48761;42.680;23.312;2023-02-28T08:26:19;54.30;;;30.08;;
62696;SDS011;48761;42.680;23.312;2023-02-28T08:28:45;54.72;;;30.58;;
62696;SDS011;48761;42.680;23.312;2023-02-28T08:31:13;47.63;;;30.08;;
62696;SDS011;48761;42.680;23.312;2023-02-28T08:33:40;53.08;;;29.15;;
62696;SDS011;48761;42.680;23.312;2023-02-28T08:36:08;55.00;;;30.92;;
62696;SDS011;48761;42.680;23.312;2023-02-28T08:38:35;52.25;;;29.58;;
62696;SDS011;48761;42.680;23.312;2023-02-28T08:41:03;56.88;;;31.33;;
62696;SDS011;48761;42.680;23.312;2023-02-28T08:43:33;56.67;;;30.15;;
62696;SDS011;48761;42.680;23.312;2023-02-28T08:46:00;55.33;;;31.33;;
62696;SDS011;48761;42.680;23.312;2023-02-28T08:48:27;57.50;;;31.88;;
62696;SDS011;48761;42.680;23.312;2023-02-28T08:50:54;54.35;;;32.03;;
62696;SDS011;48761;42.680;23.312;2023-02-28T08:53:35;61.80;;;34.78;;
62696;SDS011;48761;42.680;23.312;2023-02-28T08:56:03;57.95;;;31.23;;
62696;SDS011;48761;42.680;23.312;2023-02-28T08:58:31;56.80;;;32.15;;
62696;SDS011;48761;42.680;23.312;2023-02-28T09:00:57;55.70;;;31.45;;
62696;SDS011;48761;42.680;23.312;2023-02-28T09:03:23;59.70;;;32.55;;
62696;SDS011;48761;42.680;23.312;2023-02-28T09:05:56;54.80;;;32.25;;
62696;SDS011;48761;42.680;23.312;2023-02-28T09:08:25;62.10;;;32.97;;
62696;SDS011;48761;42.680;23.312;2023-02-28T09:10:52;80.53;;;42.15;;
62696;SDS011;48761;42.680;23.312;2023-02-28T09:13:18;80.70;;;43.70;;
62696;SDS011;48761;42.680;23.312;2023-02-28T09:15:44;79.22;;;43.70;;
62696;SDS011;48761;42.680;23.312;2023-02-28T09:18:10;80.90;;;44.20;;
62696;SDS011;48761;42.680;23.312;2023-02-28T09:20:37;84.45;;;45.28;;
62696;SDS011;48761;42.680;23.312;2023-02-28T09:23:04;80.45;;;39.47;;
62696;SDS011;48761;42.680;23.312;2023-02-28T09:25:30;75.90;;;41.38;;
62696;SDS011;48761;42.680;23.312;2023-02-28T09:27:55;75.88;;;39.08;;
62696;SDS011;48761;42.680;23.312;2023-02-28T09:30:21;81.78;;;42.42;;
62696;SDS011;48761;42.680;23.312;2023-02-28T09:32:47;86.75;;;44.65;;
62696;SDS011;48761;42.680;23.312;2023-02-28T09:35:13;93.03;;;47.35;;
62696;SDS011;48761;42.680;23.312;2023-02-28T09:37:39;104.00;;;50.42;;
62696;SDS011;48761;42.680;23.312;2023-02-28T09:40:05;89.85;;;48.13;;
62696;SDS011;48761;42.680;23.312;2023-02-28T09:42:32;96.65;;;47.75;;
62696;SDS011;48761;42.680;23.312;2023-02-28T09:45:00;84.13;;;44.28;;
62696;SDS011;48761;42.680;23.312;2023-02-28T09:47:32;84.38;;;46.00;;
62696;SDS011;48761;42.680;23.312;2023-02-28T09:52:59;91.32;;;47.13;;
62696;SDS011;48761;42.680;23.312;2023-02-28T09:55:30;93.93;;;50.85;;
62696;SDS011;48761;42.680;23.312;2023-02-28T09:58:03;93.25;;;50.30;;
62696;SDS011;48761;42.680;23.312;2023-02-28T10:05:49;84.05;;;45.97;;
62696;SDS011;48761;42.680;23.312;2023-02-28T10:08:22;88.72;;;45.63;;
62696;SDS011;48761;42.680;23.312;2023-02-28T10:11:00;63.58;;;31.95;;
62696;SDS011;48761;42.680;23.312;2023-02-28T10:13:50;62.47;;;30.83;;
62696;SDS011;48761;42.680;23.312;2023-02-28T10:16:21;42.45;;;19.48;;
62696;SDS011;48761;42.680;23.312;2023-02-28T10:18:52;36.20;;;17.40;;
62696;SDS011;48761;42.680;23.312;2023-02-28T10:21:30;37.22;;;17.40;;
62696;SDS011;48761;42.680;23.312;2023-02-28T10:24:03;31.75;;;16.70;;
62696;SDS011;48761;42.680;23.312;2023-02-28T10:26:49;39.72;;;20.33;;
62696;SDS011;48761;42.680;23.312;2023-02-28T10:29:19;32.90;;;17.30;;
62696;SDS011;48761;42.680;23.312;2023-02-28T10:31:45;42.42;;;18.45;;
62696;SDS011;48761;42.680;23.312;2023-02-28T10:34:12;35.08;;;16.80;;
62696;SDS011;48761;42.680;23.312;2023-02-28T10:36:39;35.83;;;15.93;;
62696;SDS011;48761;42.680;23.312;2023-02-28T10:42:18;34.35;;;15.20;;
62696;SDS011;48761;42.680;23.312;2023-02-28T10:44:46;38.35;;;16.90;;
62696;SDS011;48761;42.680;23.312;2023-02-28T10:47:16;42.65;;;16.75;;
62696;SDS011;48761;42.680;23.312;2023-02-28T10:49:49;36.30;;;15.25;;
62696;SDS011;48761;42.680;23.312;2023-02-28T10:52:32;35.40;;;15.52;;
62696;SDS011;48761;42.680;23.312;2023-02-28T10:55:18;29.48;;;14.88;;
62696;SDS011;48761;42.680;23.312;2023-02-28T10:57:45;39.95;;;14.35;;
62696;SDS011;48761;42.680;23.312;2023-02-28T11:00:15;32.75;;;13.63;;
62696;SDS011;48761;42.680;23.312;2023-02-28T11:02:46;33.60;;;15.55;;
62696;SDS011;48761;42.680;23.312;2023-02-28T11:05:23;34.92;;;15.52;;
62696;SDS011;48761;42.680;23.312;2023-02-28T11:07:56;31.77;;;15.05;;
62696;SDS011;48761;42.680;23.312;2023-02-28T11:10:28;37.47;;;15.98;;
62696;SDS011;48761;42.680;23.312;2023-02-28T11:12:56;35.67;;;15.35;;
62696;SDS011;48761;42.680;23.312;2023-02-28T11:15:24;28.15;;;14.75;;
62696;SDS011;48761;42.680;23.312;2023-02-28T11:18:04;40.08;;;14.93;;
62696;SDS011;48761;42.680;23.312;2023-02-28T11:20:36;33.47;;;15.35;;
62696;SDS011;48761;42.680;23.312;2023-02-28T11:23:04;32.67;;;15.85;;
62696;SDS011;48761;42.680;23.312;2023-02-28T11:25:37;35.45;;;15.65;;
62696;SDS011;48761;42.680;23.312;2023-02-28T11:28:23;30.27;;;13.38;;
62696;SDS011;48761;42.680;23.312;2023-02-28T11:31:05;30.65;;;15.35;;
62696;SDS011;48761;42.680;23.312;2023-02-28T11:39:07;29.45;;;14.95;;
62696;SDS011;48761;42.680;23.312;2023-02-28T11:53:02;35.30;;;16.65;;
62696;SDS011;48761;42.680;23.312;2023-02-28T11:55:42;31.83;;;16.42;;
62696;SDS011;48761;42.680;23.312;2023-02-28T11:58:29;33.38;;;15.00;;
62696;SDS011;48761;42.680;23.312;2023-02-28T12:03:54;42.50;;;16.63;;
62696;SDS011;48761;42.680;23.312;2023-02-28T12:11:54;41.67;;;16.38;;
62696;SDS011;48761;42.680;23.312;2023-02-28T12:20:02;42.20;;;16.73;;
62696;SDS011;48761;42.680;23.312;2023-02-28T12:27:39;39.00;;;14.95;;
62696;SDS011;48761;42.680;23.312;2023-02-28T12:32:50;28.30;;;13.20;;
62696;SDS011;48761;42.680;23.312;2023-02-28T12:35:26;36.63;;;13.90;;
62696;SDS011;48761;42.680;23.312;2023-02-28T12:41:05;36.28;;;15.00;;
62696;SDS011;48761;42.680;23.312;2023-02-28T12:43:38;36.00;;;16.10;;
62696;SDS011;48761;42.680;23.312;2023-02-28T12:46:21;30.63;;;14.07;;
62696;SDS011;48761;42.680;23.312;2023-02-28T12:48:52;30.42;;;14.90;;
62696;SDS011;48761;42.680;23.312;2023-02-28T12:51:22;24.13;;;12.25;;
62696;SDS011;48761;42.680;23.312;2023-02-28T12:53:52;35.22;;;15.23;;
62696;SDS011;48761;42.680;23.312;2023-02-28T12:56:52;27.08;;;13.00;;
62696;SDS011;48761;42.680;23.312;2023-02-28T13:05:37;30.95;;;13.05;;
62696;SDS011;48761;42.680;23.312;2023-02-28T13:11:33;30.35;;;13.23;;
62696;SDS011;48761;42.680;23.312;2023-02-28T13:19:15;33.53;;;13.80;;
62696;SDS011;48761;42.680;23.312;2023-02-28T13:21:46;31.30;;;14.90;;
62696;SDS011;48761;42.680;23.312;2023-02-28T13:24:35;34.72;;;13.05;;
62696;SDS011;48761;42.680;23.312;2023-02-28T13:29:28;34.55;;;15.05;;
62696;SDS011;48761;42.680;23.312;2023-02-28T13:34:27;34.03;;;13.70;;
62696;SDS011;48761;42.680;23.312;2023-02-28T13:37:29;31.88;;;14.20;;
62696;SDS011;48761;42.680;23.312;2023-02-28T13:39:57;30.05;;;12.57;;
62696;SDS011;48761;42.680;23.312;2023-02-28T13:47:36;29.90;;;12.50;;
62696;SDS011;48761;42.680;23.312;2023-02-28T14:06:48;27.63;;;12.55;;
62696;SDS011;48761;42.680;23.312;2023-02-28T14:11:54;37.28;;;12.75;;
62696;SDS011;48761;42.680;23.312;2023-02-28T14:17:06;27.67;;;12.32;;
62696;SDS011;48761;42.680;23.312;2023-02-28T14:19:38;28.70;;;13.30;;
62696;SDS011;48761;42.680;23.312;2023-02-28T14:22:09;26.85;;;12.23;;
62696;SDS011;48761;42.680;23.312;2023-02-28T14:25:08;29.90;;;13.00;;
62696;SDS011;48761;42.680;23.312;2023-02-28T14:33:35;30.10;;;13.48;;
62696;SDS011;48761;42.680;23.312;2023-02-28T14:36:18;27.63;;;13.27;;
62696;SDS011;48761;42.680;23.312;2023-02-28T14:38:51;29.73;;;11.93;;
62696;SDS011;48761;42.680;23.312;2023-02-28T14:41:23;27.52;;;13.18;;
62696;SDS011;48761;42.680;23.312;2023-02-28T14:43:57;29.27;;;12.38;;
62696;SDS011;48761;42.680;23.312;2023-02-28T14:46:26;26.77;;;11.38;;
62696;SDS011;48761;42.680;23.312;2023-02-28T14:49:00;26.27;;;11.77;;
62696;SDS011;48761;42.680;23.312;2023-02-28T14:51:26;33.33;;;13.60;;
62696;SDS011;48761;42.680;23.312;2023-02-28T14:53:56;30.90;;;12.45;;
62696;SDS011;48761;42.680;23.312;2023-02-28T14:56:34;32.05;;;12.30;;
62696;SDS011;48761;42.680;23.312;2023-02-28T14:59:02;23.23;;;11.70;;
62696;SDS011;48761;42.680;23.312;2023-02-28T15:01:29;30.38;;;11.38;;
62696;SDS011;48761;42.680;23.312;2023-02-28T15:04:03;29.38;;;12.00;;
62696;SDS011;48761;42.680;23.312;2023-02-28T15:06:31;21.27;;;11.80;;
62696;SDS011;48761;42.680;23.312;2023-02-28T15:09:08;27.05;;;11.13;;
62696;SDS011;48761;42.680;23.312;2023-02-28T15:11:40;24.92;;;11.35;;
62696;SDS011;48761;42.680;23.312;2023-02-28T15:14:13;28.58;;;11.40;;
62696;SDS011;48761;42.680;23.312;2023-02-28T15:16:47;30.52;;;12.45;;
62696;SDS011;48761;42.680;23.312;2023-02-28T15:21:56;28.38;;;11.98;;
62696;SDS011;48761;42.680;23.312;2023-02-28T15:24:42;26.67;;;10.60;;
62696;SDS011;48761;42.680;23.312;2023-02-28T15:27:12;23.50;;;11.55;;
62696;SDS011;48761;42.680;23.312;2023-02-28T15:29:44;24.95;;;11.27;;
62696;SDS011;48761;42.680;23.312;2023-02-28T15:32:29;20.73;;;10.63;;
62696;SDS011;48761;42.680;23.312;2023-02-28T15:34:59;26.40;;;10.98;;
62696;SDS011;48761;42.680;23.312;2023-02-28T15:37:46;23.92;;;10.95;;
62696;SDS011;48761;42.680;23.312;2023-02-28T15:40:27;18.77;;;9.65;;
62696;SDS011;48761;42.680;23.312;2023-02-28T15:43:16;21.58;;;11.25;;
62696;SDS011;48761;42.680;23.312;2023-02-28T15:50:51;29.40;;;10.82;;
62696;SDS011;48761;42.680;23.312;2023-02-28T15:53:21;25.52;;;11.27;;
62696;SDS011;48761;42.680;23.312;2023-02-28T15:56:05;23.63;;;10.25;;
62696;SDS011;48761;42.680;23.312;2023-02-28T15:58:44;23.98;;;11.00;;
62696;SDS011;48761;42.680;23.312;2023-02-28T16:01:18;28.05;;;11.45;;
62696;SDS011;48761;42.680;23.312;2023-02-28T16:03:53;22.10;;;10.80;;
62696;SDS011;48761;42.680;23.312;2023-02-28T16:09:00;24.30;;;10.77;;
62696;SDS011;48761;42.680;23.312;2023-02-28T16:11:27;24.65;;;10.32;;
62696;SDS011;48761;42.680;23.312;2023-02-28T16:13:53;20.50;;;10.55;;
62696;SDS011;48761;42.680;23.312;2023-02-28T16:16:23;21.85;;;11.05;;
62696;SDS011;48761;42.680;23.312;2023-02-28T16:18:50;22.08;;;11.27;;
62696;SDS011;48761;42.680;23.312;2023-02-28T16:21:17;20.38;;;11.55;;
62696;SDS011;48761;42.680;23.312;2023-02-28T16:23:44;21.73;;;9.75;;
62696;SDS011;48761;42.680;23.312;2023-02-28T16:26:15;15.27;;;9.25;;
62696;SDS011;48761;42.680;23.312;2023-02-28T16:28:45;18.52;;;10.25;;
62696;SDS011;48761;42.680;23.312;2023-02-28T16:31:11;17.13;;;9.15;;
62696;SDS011;48761;42.680;23.312;2023-02-28T16:33:41;21.85;;;11.05;;
62696;SDS011;48761;42.680;23.312;2023-02-28T16:36:15;18.83;;;8.60;;
62696;SDS011;48761;42.680;23.312;2023-02-28T16:38:50;22.13;;;10.40;;
62696;SDS011;48761;42.680;23.312;2023-02-28T16:41:20;15.13;;;8.68;;
62696;SDS011;48761;42.680;23.312;2023-02-28T16:43:49;18.92;;;8.52;;
62696;SDS011;48761;42.680;23.312;2023-02-28T16:46:19;17.20;;;9.52;;
62696;SDS011;48761;42.680;23.312;2023-02-28T16:48:50;17.98;;;9.52;;
62696;SDS011;48761;42.680;23.312;2023-02-28T16:51:16;17.40;;;8.07;;
62696;SDS011;48761;42.680;23.312;2023-02-28T16:53:43;18.08;;;8.88;;
62696;SDS011;48761;42.680;23.312;2023-02-28T16:56:15;16.30;;;8.52;;
62696;SDS011;48761;42.680;23.312;2023-02-28T16:58:46;14.98;;;7.20;;
62696;SDS011;48761;42.680;23.312;2023-02-28T17:01:13;19.42;;;9.18;;
62696;SDS011;48761;42.680;23.312;2023-02-28T17:03:39;16.00;;;8.93;;